Minneapolis, Minnesota
Traffic Map
Current Weather Conditions
Minneapolis, Minnesota
Overcast
Overcast
21°
Feels Like: 21°
Wind Chill: 21° Ceiling: 12000
Heat Index: 21° Visibility: 10mi
Dew Point: 10° Wind: 12mph
Humidity: 51% Direction: 180° (S)
Pressure: 29.88in Gusts: 0mph
Raw Report DataKMSP 272053Z 18010KT 150V220 10SM BKN120 OVC150 21/10 A2988 RMK AO2 SLP117 60000 T02060100 56014
Traffic Incident Summary
Active as of:
Severity:
Category:
InformationThere was an issue retrieving the traffic information for this location. Please try a different location or try again shortly.
Advertisements
Track Severe Weather on mobile